Time;durP1;ratioP1;P1;durP2;ratioP2;P2;SDS_P1;SDS_P2;PMS_P1;PMS_P2;Temp;Humidity;BMP_temperature;BMP_pressure;BME280_temperature;BME280_humidity;BME280_pressure;Samples;Min_cycle;Max_cycle;Signal;HPM_P1;HPM_P2
2023/08/07 00:00:50;;;;;;;12.80;4.30;;;15.40;99.90;;;;;;5083274;28;20104;-69
2023/08/07 00:03:18;;;;;;;9.75;4.13;;;15.40;99.90;;;;;;5082971;28;20031;-68
2023/08/07 00:05:51;;;;;;;6.47;4.18;;;15.40;99.90;;;;;;5083231;28;20021;-72
2023/08/07 00:08:17;;;;;;;8.50;4.40;;;15.40;99.90;;;;;;5082199;28;20036;-71
2023/08/07 00:10:43;;;;;;;8.48;4.35;;;15.40;99.90;;;;;;5083510;28;20020;-68
2023/08/07 00:13:08;;;;;;;10.48;4.45;;;15.40;99.90;;;;;;5083443;28;20102;-69
2023/08/07 00:15:34;;;;;;;12.40;4.80;;;15.40;99.90;;;;;;5083224;28;20527;-69
2023/08/07 00:18:01;;;;;;;8.73;4.30;;;15.40;99.90;;;;;;5083334;28;20088;-69
2023/08/07 00:20:27;;;;;;;9.18;5.18;;;15.40;99.90;;;;;;5083461;28;20060;-68
2023/08/07 00:22:52;;;;;;;12.43;5.25;;;15.30;99.90;;;;;;5082680;28;20043;-69
2023/08/07 00:25:18;;;;;;;9.75;4.78;;;15.30;99.90;;;;;;5082817;28;20029;-69
2023/08/07 00:27:44;;;;;;;10.27;5.63;;;15.30;99.90;;;;;;5083304;28;20047;-68
2023/08/07 00:30:10;;;;;;;10.60;5.22;;;15.30;99.90;;;;;;5082671;28;20032;-68
2023/08/07 00:32:35;;;;;;;8.93;5.38;;;15.30;99.90;;;;;;5081735;28;20036;-69
2023/08/07 00:35:01;;;;;;;10.32;5.30;;;15.30;99.90;;;;;;5082388;28;20021;-70
2023/08/07 00:37:27;;;;;;;9.10;5.43;;;15.30;99.90;;;;;;5082418;28;20457;-69
2023/08/07 00:39:53;;;;;;;14.35;6.00;;;15.30;99.90;;;;;;5080724;28;20035;-68
2023/08/07 00:42:18;;;;;;;12.65;6.38;;;15.30;99.90;;;;;;5080659;28;20080;-68
2023/08/07 00:44:44;;;;;;;11.13;5.95;;;15.30;99.90;;;;;;5082357;28;20074;-68
2023/08/07 00:47:10;;;;;;;10.55;6.05;;;15.20;99.90;;;;;;5082521;28;20028;-69
2023/08/07 00:49:36;;;;;;;12.55;6.53;;;15.20;99.90;;;;;;5082686;28;20029;-70
2023/08/07 00:52:02;;;;;;;14.45;6.50;;;15.20;99.90;;;;;;5081526;28;20055;-70
2023/08/07 00:54:28;;;;;;;10.45;6.63;;;15.20;99.90;;;;;;5082721;28;20416;-69
2023/08/07 00:56:54;;;;;;;13.65;6.88;;;15.20;99.90;;;;;;5081304;28;20662;-67
2023/08/07 00:59:20;;;;;;;12.23;6.70;;;15.20;99.90;;;;;;5081965;28;20028;-69
2023/08/07 01:01:46;;;;;;;17.60;7.38;;;15.10;99.90;;;;;;5082449;28;20568;-69
2023/08/07 01:04:12;;;;;;;12.73;7.05;;;15.10;99.90;;;;;;5082724;28;20024;-68
2023/08/07 01:06:38;;;;;;;14.57;7.75;;;15.20;99.90;;;;;;5082399;28;20108;-68
2023/08/07 01:09:04;;;;;;;13.57;7.43;;;15.10;99.90;;;;;;5082269;28;20389;-70
2023/08/07 01:11:30;;;;;;;17.27;7.85;;;15.10;99.90;;;;;;5081247;28;20031;-71
2023/08/07 01:14:07;;;;;;;16.10;7.70;;;15.10;99.90;;;;;;5081465;28;20092;-68
2023/08/07 01:17:09;;;;;;;20.52;8.02;;;15.10;99.90;;;;;;5082017;28;20040;-69
2023/08/07 01:19:36;;;;;;;13.18;7.93;;;15.10;99.90;;;;;;5082190;28;20329;-71
2023/08/07 01:22:14;;;;;;;17.10;8.00;;;15.10;99.90;;;;;;5081638;28;20028;-68
2023/08/07 01:24:44;;;;;;;19.40;8.48;;;15.10;99.90;;;;;;5082165;28;20496;-68
2023/08/07 01:27:17;;;;;;;18.77;7.88;;;15.10;99.90;;;;;;5082167;28;20088;-68
2023/08/07 01:29:59;;;;;;;15.43;8.65;;;15.10;99.90;;;;;;5081898;28;20036;-69
2023/08/07 01:32:39;;;;;;;19.50;8.57;;;15.10;99.90;;;;;;5081477;28;20024;-69
2023/08/07 01:35:06;;;;;;;16.73;8.55;;;15.00;99.90;;;;;;5081418;28;20463;-68
2023/08/07 01:37:39;;;;;;;15.95;7.35;;;15.00;99.90;;;;;;5080141;28;20461;-68
2023/08/07 01:40:06;;;;;;;16.45;7.88;;;15.00;99.90;;;;;;5081732;28;20103;-69
2023/08/07 01:42:32;;;;;;;22.48;7.43;;;15.00;99.90;;;;;;5080039;28;20024;-71
2023/08/07 01:44:58;;;;;;;15.20;7.47;;;15.00;99.90;;;;;;5082080;28;20062;-71
2023/08/07 01:47:23;;;;;;;15.85;7.40;;;15.00;99.90;;;;;;5081767;28;20054;-67
2023/08/07 01:49:49;;;;;;;11.18;6.88;;;15.00;99.90;;;;;;5081377;28;20497;-66
2023/08/07 01:52:23;;;;;;;15.75;7.43;;;15.00;99.90;;;;;;5080370;28;20052;-73
2023/08/07 01:54:49;;;;;;;13.85;6.95;;;15.00;99.90;;;;;;5081369;28;20012;-68
2023/08/07 01:57:15;;;;;;;16.20;7.00;;;15.00;99.90;;;;;;5081307;28;20449;-68
2023/08/07 01:59:41;;;;;;;13.52;7.28;;;15.00;99.90;;;;;;5081493;28;20017;-69
2023/08/07 02:02:06;;;;;;;12.95;6.88;;;15.00;99.90;;;;;;5081739;28;20044;-68
2023/08/07 02:04:32;;;;;;;15.15;7.13;;;15.00;99.90;;;;;;5081536;28;20035;-69
2023/08/07 02:06:57;;;;;;;17.83;7.40;;;15.00;99.90;;;;;;5082143;28;20033;-69
2023/08/07 02:09:23;;;;;;;16.17;7.57;;;15.00;99.90;;;;;;5081067;28;20021;-71
2023/08/07 02:11:49;;;;;;;13.73;7.65;;;15.00;99.90;;;;;;5081248;28;20088;-68
2023/08/07 02:14:14;;;;;;;13.88;7.05;;;15.00;99.90;;;;;;5081489;28;20036;-69
2023/08/07 02:16:40;;;;;;;14.55;7.28;;;15.00;99.90;;;;;;5081356;28;20029;-68
2023/08/07 02:19:05;;;;;;;15.98;7.68;;;15.00;99.90;;;;;;5081471;28;20120;-69
2023/08/07 02:21:31;;;;;;;14.65;7.00;;;15.00;99.90;;;;;;5081460;28;20027;-69
2023/08/07 02:23:57;;;;;;;16.77;7.38;;;15.00;99.90;;;;;;5081574;28;20032;-70
2023/08/07 02:26:23;;;;;;;14.63;7.80;;;15.00;99.90;;;;;;5084460;28;20040;-68
2023/08/07 02:28:48;;;;;;;17.58;8.45;;;15.00;99.90;;;;;;5085221;28;20283;-68
2023/08/07 02:31:14;;;;;;;16.45;7.57;;;14.90;99.90;;;;;;5082966;28;20016;-70
2023/08/07 02:33:43;;;;;;;18.33;8.50;;;14.90;99.90;;;;;;5083981;28;20033;-69
2023/08/07 02:36:09;;;;;;;16.33;7.65;;;14.90;99.90;;;;;;5085056;28;20017;-69
2023/08/07 02:38:34;;;;;;;15.38;7.63;;;14.90;99.90;;;;;;5085325;28;20021;-70
2023/08/07 02:41:00;;;;;;;16.35;7.85;;;14.90;99.90;;;;;;5085318;28;20586;-69
2023/08/07 02:43:28;;;;;;;17.27;7.70;;;14.80;99.90;;;;;;5084149;28;20030;-69
2023/08/07 02:45:54;;;;;;;22.13;8.65;;;14.80;99.90;;;;;;5084911;28;20088;-68
2023/08/07 02:48:19;;;;;;;15.50;8.10;;;14.80;99.90;;;;;;5084400;28;20033;-70
2023/08/07 02:50:45;;;;;;;19.45;8.43;;;14.80;99.90;;;;;;5084826;28;20021;-68
2023/08/07 02:53:11;;;;;;;14.50;9.00;;;14.80;99.90;;;;;;5084634;28;20070;-69
2023/08/07 02:55:36;;;;;;;19.13;10.50;;;14.80;99.90;;;;;;5084858;28;20043;-69
2023/08/07 02:58:02;;;;;;;25.55;11.70;;;14.80;99.90;;;;;;5084985;28;20036;-69
2023/08/07 03:00:28;;;;;;;22.50;11.70;;;14.80;99.90;;;;;;5083103;28;20029;-69
2023/08/07 03:02:53;;;;;;;21.73;11.85;;;14.80;99.90;;;;;;5084696;28;20028;-68
2023/08/07 03:05:19;;;;;;;25.13;12.35;;;14.80;99.90;;;;;;5084535;28;20044;-70
2023/08/07 03:07:44;;;;;;;22.63;11.90;;;14.80;99.90;;;;;;5084373;28;20035;-68
2023/08/07 03:10:11;;;;;;;19.48;11.60;;;14.80;99.90;;;;;;5084787;28;20059;-70
2023/08/07 03:12:38;;;;;;;26.85;11.90;;;14.80;99.90;;;;;;5081054;28;20032;-70
2023/08/07 03:15:05;;;;;;;24.20;11.82;;;14.80;99.90;;;;;;5084361;28;20116;-71
2023/08/07 03:17:31;;;;;;;25.15;10.57;;;14.80;99.90;;;;;;5084912;28;20016;-70
2023/08/07 03:19:57;;;;;;;23.13;11.15;;;14.70;99.90;;;;;;5084545;28;20029;-70
2023/08/07 03:22:23;;;;;;;24.13;11.32;;;14.70;99.90;;;;;;5082909;28;20036;-71
2023/08/07 03:24:49;;;;;;;24.10;11.10;;;14.70;99.90;;;;;;5084319;28;20020;-71
2023/08/07 03:27:15;;;;;;;21.20;11.05;;;14.70;99.90;;;;;;5083912;28;20048;-68
2023/08/07 03:29:40;;;;;;;19.65;10.65;;;14.70;99.90;;;;;;5083552;28;20033;-69
2023/08/07 03:32:06;;;;;;;17.15;10.70;;;14.70;99.90;;;;;;5084089;28;20028;-68
2023/08/07 03:34:32;;;;;;;26.15;11.00;;;14.80;99.90;;;;;;5084414;28;20095;-69
2023/08/07 03:37:01;;;;;;;21.25;10.82;;;14.80;99.90;;;;;;5082242;28;20040;-67
2023/08/07 03:39:26;;;;;;;20.73;10.48;;;14.80;99.90;;;;;;5084335;28;20017;-67
2023/08/07 03:41:52;;;;;;;19.38;10.10;;;14.80;99.90;;;;;;5083825;28;20027;-68
2023/08/07 03:44:18;;;;;;;21.90;9.90;;;14.80;99.90;;;;;;5082899;28;20792;-69
2023/08/07 03:46:43;;;;;;;18.98;8.98;;;14.80;99.90;;;;;;5084219;28;20036;-70
2023/08/07 03:49:09;;;;;;;16.80;7.70;;;14.80;99.90;;;;;;5083816;28;20024;-69
2023/08/07 03:51:34;;;;;;;14.43;8.27;;;14.80;99.90;;;;;;5083618;28;20053;-67
2023/08/07 03:54:00;;;;;;;27.38;9.20;;;14.80;99.90;;;;;;5083823;28;20036;-68
2023/08/07 03:56:26;;;;;;;10.63;7.07;;;14.80;99.90;;;;;;5083542;28;20537;-70
2023/08/07 03:58:52;;;;;;;9.68;6.47;;;14.80;99.90;;;;;;5083839;28;20044;-68
2023/08/07 04:01:17;;;;;;;16.27;6.90;;;14.70;99.90;;;;;;5083678;28;20017;-68
2023/08/07 04:03:43;;;;;;;7.22;4.82;;;14.70;99.90;;;;;;5083568;28;20086;-73
2023/08/07 04:06:10;;;;;;;7.40;4.55;;;14.70;99.90;;;;;;5083803;28;20133;-70
2023/08/07 04:08:36;;;;;;;7.32;4.60;;;14.70;99.90;;;;;;5083088;28;20076;-68
2023/08/07 04:11:03;;;;;;;9.68;3.95;;;14.60;99.90;;;;;;5083293;28;20067;-70
2023/08/07 04:13:30;;;;;;;9.27;4.70;;;14.60;99.90;;;;;;5083129;28;20039;-71
2023/08/07 04:15:56;;;;;;;11.38;4.20;;;14.60;99.90;;;;;;5082971;28;20107;-68
2023/08/07 04:18:22;;;;;;;9.73;3.80;;;14.60;99.90;;;;;;5083417;28;20016;-70
2023/08/07 04:20:54;;;;;;;9.70;3.60;;;14.60;99.90;;;;;;5083563;28;20055;-67
2023/08/07 04:23:21;;;;;;;8.10;3.17;;;14.60;99.90;;;;;;5083033;28;20869;-68
2023/08/07 04:25:50;;;;;;;8.93;3.53;;;14.60;99.90;;;;;;5082813;28;20025;-68
2023/08/07 04:28:16;;;;;;;7.25;3.42;;;14.60;99.90;;;;;;5080365;28;20096;-68
2023/08/07 04:30:44;;;;;;;8.77;3.75;;;14.60;99.90;;;;;;5082750;28;20021;-71
2023/08/07 04:33:10;;;;;;;10.23;3.30;;;14.60;99.90;;;;;;5080056;28;20040;-70
2023/08/07 04:35:36;;;;;;;9.57;3.70;;;14.60;99.90;;;;;;5081504;28;20048;-69
2023/08/07 04:38:02;;;;;;;7.65;3.10;;;14.60;99.90;;;;;;5082223;28;20034;-71
2023/08/07 04:40:28;;;;;;;7.03;3.50;;;14.50;99.90;;;;;;5082794;28;20103;-74
2023/08/07 04:42:55;;;;;;;8.52;3.40;;;14.50;99.90;;;;;;5081832;28;20420;-72
2023/08/07 04:45:21;;;;;;;7.63;2.95;;;14.50;99.90;;;;;;5082681;28;20028;-70
2023/08/07 04:47:46;;;;;;;6.97;2.83;;;14.50;99.90;;;;;;5082808;28;20504;-70
2023/08/07 04:50:12;;;;;;;9.38;3.30;;;14.50;99.90;;;;;;5082670;28;20028;-69
2023/08/07 04:52:37;;;;;;;10.48;3.20;;;14.50;99.90;;;;;;5078715;28;20043;-68
2023/08/07 04:55:04;;;;;;;8.43;3.20;;;14.50;99.90;;;;;;5081050;28;20029;-69
2023/08/07 04:57:30;;;;;;;10.43;2.85;;;14.40;99.90;;;;;;5079268;28;20036;-68
2023/08/07 04:59:56;;;;;;;9.18;3.40;;;14.40;99.90;;;;;;5081589;28;20592;-68
2023/08/07 05:02:21;;;;;;;12.15;3.53;;;14.40;99.90;;;;;;5080224;28;20081;-72
2023/08/07 05:04:47;;;;;;;9.05;2.83;;;14.40;99.90;;;;;;5080702;28;20029;-67
2023/08/07 05:07:13;;;;;;;6.20;2.85;;;14.40;99.90;;;;;;5080700;28;20029;-68
2023/08/07 05:09:38;;;;;;;6.18;2.65;;;14.40;99.90;;;;;;5082142;28;20032;-66
2023/08/07 05:12:06;;;;;;;10.50;3.13;;;14.40;99.90;;;;;;5081746;28;20063;-68
2023/08/07 05:14:32;;;;;;;11.18;2.65;;;14.40;99.90;;;;;;5080744;28;20032;-67
2023/08/07 05:16:57;;;;;;;8.70;2.83;;;14.40;99.90;;;;;;5081367;28;20051;-70
2023/08/07 05:19:23;;;;;;;7.15;2.80;;;14.40;99.90;;;;;;5082000;28;20375;-68
2023/08/07 05:21:50;;;;;;;9.40;2.72;;;14.40;99.90;;;;;;5081535;28;20021;-67
2023/08/07 05:24:19;;;;;;;11.23;3.10;;;14.40;99.90;;;;;;5081485;28;20031;-68
2023/08/07 05:26:45;;;;;;;8.57;3.22;;;14.40;99.90;;;;;;5080627;28;20028;-69
2023/08/07 05:29:10;;;;;;;6.68;3.00;;;14.40;99.90;;;;;;5078183;28;20032;-68
2023/08/07 05:31:37;;;;;;;6.15;2.53;;;14.50;99.90;;;;;;5079047;28;20020;-68
2023/08/07 05:34:02;;;;;;;9.05;2.72;;;14.50;99.90;;;;;;5079752;28;20036;-71
2023/08/07 05:36:29;;;;;;;7.38;2.65;;;14.50;99.90;;;;;;5076392;28;20039;-70
2023/08/07 05:38:55;;;;;;;6.05;2.38;;;14.50;99.90;;;;;;5079346;28;20075;-69
2023/08/07 05:41:21;;;;;;;7.53;2.28;;;14.50;99.90;;;;;;5079676;28;20028;-68
2023/08/07 05:43:46;;;;;;;6.50;2.00;;;14.60;99.90;;;;;;5081198;28;20020;-70
2023/08/07 05:46:12;;;;;;;9.05;2.45;;;14.60;99.90;;;;;;5079817;28;20021;-70
2023/08/07 05:48:37;;;;;;;5.35;2.28;;;14.60;99.90;;;;;;5079444;28;20024;-69
2023/08/07 05:51:03;;;;;;;6.15;2.40;;;14.60;99.90;;;;;;5081173;28;20129;-68
2023/08/07 05:53:29;;;;;;;7.22;2.08;;;14.60;99.90;;;;;;5081379;28;20056;-69
2023/08/07 05:55:55;;;;;;;10.13;2.30;;;14.70;99.90;;;;;;5081345;28;20028;-69
2023/08/07 05:58:24;;;;;;;6.90;2.20;;;14.70;99.90;;;;;;5078934;28;20021;-68
2023/08/07 06:00:49;;;;;;;11.23;2.88;;;14.70;99.90;;;;;;5079004;28;20047;-69
2023/08/07 06:03:15;;;;;;;6.40;2.00;;;14.70;99.90;;;;;;5078656;28;20060;-69
2023/08/07 06:05:40;;;;;;;5.00;1.90;;;14.70;99.90;;;;;;5078708;28;20025;-67
2023/08/07 06:08:06;;;;;;;9.00;2.30;;;14.70;99.90;;;;;;5079391;28;20137;-72
2023/08/07 06:10:32;;;;;;;8.82;2.47;;;14.70;99.90;;;;;;5081173;28;20032;-68
2023/08/07 06:12:57;;;;;;;9.90;2.55;;;14.70;99.90;;;;;;5080778;28;20060;-71
2023/08/07 06:15:23;;;;;;;7.53;2.30;;;14.80;99.90;;;;;;5080349;28;20016;-69
2023/08/07 06:17:50;;;;;;;7.80;2.70;;;14.80;99.90;;;;;;5081063;28;20082;-68
2023/08/07 06:20:16;;;;;;;10.77;2.78;;;14.80;99.90;;;;;;5080336;28;20017;-69
2023/08/07 06:22:42;;;;;;;12.13;2.80;;;14.80;99.90;;;;;;5081363;28;20055;-69
2023/08/07 06:25:08;;;;;;;10.40;2.42;;;14.80;99.90;;;;;;5081587;28;20025;-69
2023/08/07 06:27:34;;;;;;;8.25;2.47;;;14.90;99.90;;;;;;5080665;28;20047;-68
2023/08/07 06:30:00;;;;;;;14.57;2.88;;;14.90;99.90;;;;;;5081390;28;20023;-67
2023/08/07 06:32:26;;;;;;;12.35;2.80;;;14.90;99.90;;;;;;5081422;28;21302;-70
2023/08/07 06:34:52;;;;;;;7.93;2.58;;;15.00;99.90;;;;;;5080525;28;20074;-70
2023/08/07 06:37:18;;;;;;;10.48;2.67;;;15.00;99.90;;;;;;5078308;28;20024;-68
2023/08/07 06:39:43;;;;;;;12.25;3.00;;;15.10;99.90;;;;;;5080462;28;20485;-68
2023/08/07 06:42:09;;;;;;;13.98;3.58;;;15.00;99.90;;;;;;5081060;28;20033;-68
2023/08/07 06:44:35;;;;;;;10.88;3.30;;;15.00;99.90;;;;;;5081593;28;20020;-69
2023/08/07 06:47:00;;;;;;;17.85;3.60;;;15.00;99.90;;;;;;5080002;28;20112;-70
2023/08/07 06:49:26;;;;;;;14.68;3.30;;;15.00;99.90;;;;;;5079791;28;20027;-68
2023/08/07 06:51:52;;;;;;;11.68;3.03;;;14.90;99.90;;;;;;5080550;28;20068;-71
2023/08/07 06:54:18;;;;;;;10.43;2.97;;;15.00;99.90;;;;;;5080853;28;20040;-68
2023/08/07 06:56:44;;;;;;;14.27;3.22;;;15.00;99.90;;;;;;5080870;28;20130;-70
2023/08/07 06:59:10;;;;;;;16.88;3.13;;;15.00;99.90;;;;;;5080206;28;20025;-69
2023/08/07 07:01:36;;;;;;;14.00;3.50;;;15.00;99.90;;;;;;5080983;28;20422;-69
2023/08/07 07:04:02;;;;;;;13.75;3.40;;;15.00;99.90;;;;;;5076159;28;20035;-70
2023/08/07 07:06:27;;;;;;;15.45;3.15;;;15.10;99.90;;;;;;5075666;28;20088;-69
2023/08/07 07:08:56;;;;;;;11.57;3.30;;;15.10;99.90;;;;;;5077386;28;20032;-68
2023/08/07 07:11:24;;;;;;;17.23;3.53;;;15.20;99.90;;;;;;5079098;28;20044;-68
2023/08/07 07:13:50;;;;;;;18.83;3.70;;;15.20;99.90;;;;;;5083054;28;20040;-69
2023/08/07 07:16:21;;;;;;;16.33;3.90;;;15.30;99.90;;;;;;5080674;28;20025;-71
2023/08/07 07:18:50;;;;;;;14.88;4.22;;;15.30;99.90;;;;;;5083299;28;20450;-69
2023/08/07 07:21:16;;;;;;;17.23;4.55;;;15.40;99.90;;;;;;5082157;28;20358;-69
2023/08/07 07:23:41;;;;;;;17.25;3.85;;;15.50;99.90;;;;;;5083009;28;20055;-68
2023/08/07 07:26:07;;;;;;;21.88;4.50;;;15.60;99.90;;;;;;5078933;28;20606;-72
2023/08/07 07:28:33;;;;;;;12.30;4.63;;;15.70;99.90;;;;;;5078508;28;20076;-68
2023/08/07 07:30:59;;;;;;;17.52;4.07;;;15.80;99.90;;;;;;5083807;28;20020;-68
2023/08/07 07:33:24;;;;;;;19.63;4.43;;;15.80;99.90;;;;;;5081924;28;20044;-67
2023/08/07 07:35:50;;;;;;;24.60;5.30;;;15.90;99.90;;;;;;5084084;28;20055;-68
2023/08/07 07:38:16;;;;;;;17.48;4.20;;;15.90;99.90;;;;;;5081464;28;20527;-72
2023/08/07 07:40:41;;;;;;;19.55;4.60;;;15.90;99.90;;;;;;5082523;28;20031;-68
2023/08/07 07:43:07;;;;;;;16.20;4.00;;;15.90;99.90;;;;;;5079565;28;20165;-70
2023/08/07 07:45:36;;;;;;;20.65;4.10;;;15.90;99.90;;;;;;5080094;28;20024;-68
2023/08/07 07:48:02;;;;;;;18.65;3.63;;;16.00;99.90;;;;;;5080962;28;20017;-70
2023/08/07 07:50:28;;;;;;;19.48;4.32;;;16.00;99.90;;;;;;5083396;28;20024;-68
2023/08/07 07:52:54;;;;;;;22.00;3.88;;;16.00;99.90;;;;;;5082543;28;20048;-71
2023/08/07 07:55:20;;;;;;;17.73;3.70;;;16.10;99.90;;;;;;5083734;28;20020;-69
2023/08/07 07:57:46;;;;;;;25.02;4.60;;;16.20;99.90;;;;;;5080885;28;20115;-69
2023/08/07 08:00:13;;;;;;;17.20;4.18;;;16.20;99.90;;;;;;5082466;28;20023;-68
2023/08/07 08:02:40;;;;;;;17.17;3.83;;;16.30;99.90;;;;;;5082794;28;20048;-72
2023/08/07 08:05:07;;;;;;;23.88;3.70;;;16.40;99.90;;;;;;5077852;28;20032;-75
2023/08/07 08:07:34;;;;;;;15.10;3.55;;;16.50;99.90;;;;;;5080564;28;20039;-74
2023/08/07 08:10:00;;;;;;;19.98;3.70;;;16.50;99.90;;;;;;5080653;28;20021;-74
2023/08/07 08:12:26;;;;;;;10.75;2.72;;;16.40;99.90;;;;;;5082499;28;20101;-71
2023/08/07 08:14:51;;;;;;;13.52;3.05;;;16.30;99.90;;;;;;5082443;28;20056;-73
2023/08/07 08:17:17;;;;;;;14.90;3.65;;;16.30;99.90;;;;;;5082057;28;20032;-72
2023/08/07 08:19:43;;;;;;;13.95;2.72;;;16.30;99.90;;;;;;5081829;28;20123;-71
2023/08/07 08:22:08;;;;;;;17.75;3.55;;;16.30;99.90;;;;;;5082777;28;20051;-71
2023/08/07 08:24:35;;;;;;;14.65;2.60;;;16.30;99.90;;;;;;5080507;28;20044;-68
2023/08/07 08:27:00;;;;;;;14.40;2.80;;;16.30;99.90;;;;;;5083163;28;20029;-69
2023/08/07 08:29:28;;;;;;;16.60;3.40;;;16.40;99.90;;;;;;5082908;28;20564;-73
2023/08/07 08:31:54;;;;;;;22.80;4.18;;;16.30;99.90;;;;;;5081596;28;20047;-72
2023/08/07 08:34:21;;;;;;;15.48;3.38;;;16.40;99.90;;;;;;5081147;28;20689;-77
2023/08/07 08:36:47;;;;;;;18.35;3.00;;;16.50;99.90;;;;;;5079256;28;20048;-74
2023/08/07 08:39:12;;;;;;;12.10;2.80;;;16.50;99.90;;;;;;5079191;28;20025;-73
2023/08/07 08:41:41;;;;;;;11.43;2.92;;;16.50;99.90;;;;;;5078786;28;20116;-72
2023/08/07 08:44:07;;;;;;;14.80;3.00;;;16.40;99.90;;;;;;5075431;28;20025;-73
2023/08/07 08:46:34;;;;;;;16.40;2.92;;;16.20;99.90;;;;;;5075302;28;20040;-73
2023/08/07 08:49:03;;;;;;;14.25;3.15;;;16.00;99.90;;;;;;5068614;28;20118;-75
2023/08/07 08:51:31;;;;;;;18.20;3.28;;;15.80;99.90;;;;;;5080661;28;20056;-72
2023/08/07 08:53:57;;;;;;;17.88;3.67;;;15.50;99.90;;;;;;5080964;28;20060;-73
2023/08/07 08:56:23;;;;;;;15.65;4.18;;;15.40;99.90;;;;;;5082162;28;20031;-76
2023/08/07 08:58:51;;;;;;;15.90;3.40;;;15.40;99.90;;;;;;5081204;28;20111;-73
2023/08/07 09:01:18;;;;;;;14.65;2.95;;;15.40;99.90;;;;;;5081554;28;20020;-74
2023/08/07 09:03:45;;;;;;;20.40;4.15;;;15.60;99.90;;;;;;5081948;28;20020;-72
2023/08/07 09:06:12;;;;;;;16.90;3.22;;;15.70;99.90;;;;;;5082014;28;20025;-75
2023/08/07 09:08:42;;;;;;;26.08;3.70;;;15.70;99.90;;;;;;5081845;28;20027;-72
2023/08/07 09:11:09;;;;;;;22.73;3.88;;;15.70;99.90;;;;;;5080618;28;20020;-75
2023/08/07 09:13:37;;;;;;;16.08;3.53;;;15.60;99.90;;;;;;5079898;28;20028;-77
2023/08/07 09:16:04;;;;;;;14.70;3.33;;;15.40;99.90;;;;;;5074822;28;20021;-76
2023/08/07 09:18:31;;;;;;;14.27;3.60;;;15.40;99.90;;;;;;5080559;28;20044;-75
2023/08/07 09:20:57;;;;;;;18.77;4.65;;;15.40;99.90;;;;;;5074116;28;20066;-75
2023/08/07 09:23:24;;;;;;;14.48;3.55;;;15.40;99.90;;;;;;5077013;28;20035;-76
2023/08/07 09:26:02;;;;;;;18.15;3.97;;;15.50;99.90;;;;;;5077322;28;20035;-73
2023/08/07 09:28:30;;;;;;;14.10;3.40;;;15.60;99.90;;;;;;5078026;28;20249;-73
2023/08/07 09:30:55;;;;;;;17.10;3.63;;;15.90;99.90;;;;;;5069465;28;20058;-74
2023/08/07 09:33:28;;;;;;;14.63;3.85;;;16.10;99.90;;;;;;5071473;28;20028;-74
2023/08/07 09:35:59;;;;;;;15.13;3.47;;;16.30;99.90;;;;;;5074976;28;20017;-72
2023/08/07 09:38:34;;;;;;;11.15;3.00;;;16.50;99.90;;;;;;5078223;28;20050;-73
2023/08/07 09:41:03;;;;;;;13.80;2.88;;;16.60;99.90;;;;;;5078333;28;20028;-74
2023/08/07 09:43:33;;;;;;;10.63;2.60;;;16.70;99.90;;;;;;5078643;28;20039;-75
2023/08/07 09:46:03;;;;;;;17.58;3.22;;;16.80;99.90;;;;;;5073218;28;20039;-73
2023/08/07 09:48:29;;;;;;;9.95;2.40;;;16.90;99.90;;;;;;5071378;28;20040;-72
2023/08/07 09:50:59;;;;;;;14.32;2.35;;;17.00;99.90;;;;;;5077370;28;20028;-70
2023/08/07 09:53:26;;;;;;;8.63;2.67;;;17.20;99.90;;;;;;5080238;28;20120;-74
2023/08/07 09:55:54;;;;;;;12.43;2.30;;;17.30;99.90;;;;;;5079826;28;20473;-72
2023/08/07 09:58:20;;;;;;;12.20;2.53;;;17.50;99.90;;;;;;5079092;28;20028;-73
2023/08/07 10:00:47;;;;;;;9.20;2.42;;;17.50;99.90;;;;;;5079181;28;20036;-74
2023/08/07 10:03:14;;;;;;;10.60;2.10;;;17.60;99.90;;;;;;5076491;28;20021;-72
2023/08/07 10:05:44;;;;;;;8.85;2.42;;;17.60;99.90;;;;;;5077940;28;20017;-75
2023/08/07 10:08:11;;;;;;;10.93;2.75;;;17.70;99.90;;;;;;5074032;28;20041;-74
2023/08/07 10:10:38;;;;;;;7.32;2.00;;;17.80;99.90;;;;;;5078664;28;20043;-73
2023/08/07 10:13:05;;;;;;;12.63;2.65;;;17.70;99.90;;;;;;5073495;28;20378;-73
2023/08/07 10:15:34;;;;;;;12.68;3.30;;;17.80;99.90;;;;;;5072919;28;20025;-75
2023/08/07 10:18:00;;;;;;;12.05;2.30;;;17.80;99.90;;;;;;5079084;28;20041;-73
2023/08/07 10:20:27;;;;;;;11.93;2.80;;;17.90;99.90;;;;;;5077773;28;20052;-69
2023/08/07 10:22:57;;;;;;;13.30;2.95;;;18.00;99.90;;;;;;5077044;28;20036;-72
2023/08/07 10:25:24;;;;;;;9.27;2.70;;;18.10;99.90;;;;;;5078622;28;20052;-72
2023/08/07 10:27:53;;;;;;;11.50;3.20;;;18.10;99.90;;;;;;5074258;28;20028;-70
2023/08/07 10:30:20;;;;;;;8.20;2.75;;;17.90;99.90;;;;;;5073921;28;20107;-74
2023/08/07 10:32:46;;;;;;;15.63;2.45;;;17.60;99.90;;;;;;5078262;28;20045;-71
2023/08/07 10:35:32;;;;;;;13.45;2.47;;;17.40;99.90;;;;;;5075052;28;20035;-70
2023/08/07 10:38:09;;;;;;;10.15;2.60;;;17.20;99.90;;;;;;5071356;28;20044;-73
2023/08/07 10:41:02;;;;;;;10.23;2.38;;;17.00;99.90;;;;;;5071829;28;20035;-76
2023/08/07 10:43:31;;;;;;;13.25;2.55;;;16.90;99.90;;;;;;5072866;28;20041;-72
2023/08/07 10:46:05;;;;;;;10.73;2.67;;;16.90;99.90;;;;;;5080766;28;20447;-73
2023/08/07 10:48:47;;;;;;;14.32;2.78;;;16.90;99.90;;;;;;5081320;28;20167;-71
2023/08/07 10:51:17;;;;;;;11.30;2.55;;;16.70;99.90;;;;;;5082349;28;20044;-69
2023/08/07 10:53:45;;;;;;;8.50;2.63;;;16.60;99.90;;;;;;5082802;28;20040;-78
2023/08/07 10:56:15;;;;;;;10.70;3.03;;;16.60;99.90;;;;;;5083484;28;20172;-70
2023/08/07 10:58:41;;;;;;;13.52;2.60;;;16.70;99.90;;;;;;5080187;28;20060;-73
2023/08/07 11:01:18;;;;;;;12.05;2.70;;;16.80;99.90;;;;;;5080530;28;20111;-76
2023/08/07 11:03:44;;;;;;;12.82;2.63;;;16.90;99.90;;;;;;5079109;28;20028;-72
2023/08/07 11:06:11;;;;;;;8.73;2.28;;;17.10;99.90;;;;;;5078601;28;20025;-70
2023/08/07 11:08:38;;;;;;;13.48;3.00;;;17.20;99.90;;;;;;5082036;28;20466;-71
2023/08/07 11:11:07;;;;;;;15.27;2.53;;;17.40;99.90;;;;;;5081087;28;20058;-72
2023/08/07 11:13:34;;;;;;;14.10;2.97;;;17.40;99.90;;;;;;5081978;28;20036;-73
2023/08/07 11:16:03;;;;;;;12.30;3.15;;;17.60;99.90;;;;;;5083054;28;20477;-74
2023/08/07 11:18:32;;;;;;;14.27;2.80;;;17.70;99.90;;;;;;5081074;28;20442;-74
2023/08/07 11:21:01;;;;;;;15.60;2.65;;;17.80;99.90;;;;;;5081461;28;20037;-71
2023/08/07 11:23:29;;;;;;;11.77;2.90;;;18.00;99.90;;;;;;5083236;28;20484;-75
2023/08/07 11:25:56;;;;;;;10.20;3.00;;;18.10;99.90;;;;;;5082539;28;20035;-72
2023/08/07 11:28:23;;;;;;;10.70;2.97;;;18.20;99.90;;;;;;5082918;28;20024;-69
2023/08/07 11:30:53;;;;;;;15.27;3.45;;;18.30;99.90;;;;;;5082950;28;20027;-71
2023/08/07 11:33:19;;;;;;;12.57;2.47;;;18.50;99.90;;;;;;5081566;28;20048;-69
2023/08/07 11:35:46;;;;;;;10.02;2.05;;;18.50;99.90;;;;;;5083007;28;20450;-71
2023/08/07 11:38:12;;;;;;;11.93;2.88;;;18.60;99.90;;;;;;5083222;28;20019;-71
2023/08/07 11:40:38;;;;;;;6.63;2.10;;;18.60;99.90;;;;;;5080913;28;20099;-70
2023/08/07 11:43:04;;;;;;;9.15;2.30;;;18.60;99.90;;;;;;5080591;28;20469;-71
2023/08/07 11:45:31;;;;;;;7.60;2.35;;;18.70;99.90;;;;;;5082867;28;20051;-73
2023/08/07 11:47:59;;;;;;;8.07;2.40;;;18.60;99.90;;;;;;5081801;28;20028;-71
2023/08/07 11:50:27;;;;;;;7.57;2.38;;;18.50;99.90;;;;;;5081490;28;20878;-71
2023/08/07 11:52:53;;;;;;;10.93;2.22;;;18.60;99.90;;;;;;5080033;28;20137;-70
2023/08/07 11:55:19;;;;;;;7.97;2.22;;;18.80;99.90;;;;;;5082598;28;20504;-75
2023/08/07 11:57:47;;;;;;;5.95;2.53;;;18.90;99.90;;;;;;5080240;28;20021;-69
2023/08/07 12:00:14;;;;;;;9.32;2.17;;;19.10;99.90;;;;;;5081608;28;20028;-70
2023/08/07 12:02:43;;;;;;;9.43;2.15;;;19.20;99.90;;;;;;5082244;28;20414;-71
2023/08/07 12:05:13;;;;;;;6.68;1.95;;;19.20;99.90;;;;;;5081203;28;20029;-71
2023/08/07 12:07:41;;;;;;;9.68;2.40;;;19.00;99.90;;;;;;5079572;28;20040;-74
2023/08/07 12:10:09;;;;;;;11.98;2.65;;;18.80;99.90;;;;;;5081037;28;20032;-69
2023/08/07 12:12:42;;;;;;;8.25;2.00;;;18.60;99.90;;;;;;5080126;28;20499;-71
2023/08/07 12:15:09;;;;;;;12.48;2.20;;;18.60;99.90;;;;;;5081009;28;20485;-68
2023/08/07 12:17:38;;;;;;;9.73;2.60;;;18.50;99.90;;;;;;5082509;28;20036;-68
2023/08/07 12:20:10;;;;;;;13.95;1.98;;;18.30;99.90;;;;;;5081192;28;20016;-66
2023/08/07 12:22:37;;;;;;;10.65;2.53;;;18.20;99.90;;;;;;5078384;28;20024;-70
2023/08/07 12:25:04;;;;;;;10.82;2.63;;;18.30;99.90;;;;;;5077299;28;20047;-70
2023/08/07 12:27:30;;;;;;;8.98;2.47;;;18.40;99.90;;;;;;5077075;28;20035;-71
2023/08/07 12:29:56;;;;;;;9.00;2.15;;;18.60;99.90;;;;;;5081310;28;20028;-67
2023/08/07 12:32:21;;;;;;;6.95;2.10;;;18.80;99.90;;;;;;5080376;28;20025;-69
2023/08/07 12:34:49;;;;;;;7.80;1.80;;;18.80;99.90;;;;;;5080100;28;20108;-70
2023/08/07 12:37:15;;;;;;;7.20;2.35;;;18.60;99.90;;;;;;5080872;28;20012;-70